createdAt,value
2018-03-03T00:01:01.230Z,-4.65
2018-03-03T00:02:06.323Z,-4.60
2018-03-03T00:03:11.790Z,-4.60
2018-03-03T00:04:17.247Z,-4.60
2018-03-03T00:05:22.831Z,-4.67
2018-03-03T00:06:28.086Z,-4.75
2018-03-03T00:07:33.361Z,-4.79
2018-03-03T00:08:38.604Z,-4.72
2018-03-03T00:09:43.809Z,-4.68
2018-03-03T00:10:49.005Z,-4.59
2018-03-03T00:11:55.519Z,-4.53
2018-03-03T00:13:00.613Z,-4.51
2018-03-03T00:14:05.990Z,-4.55
2018-03-03T00:15:11.278Z,-4.60
2018-03-03T00:16:16.559Z,-4.63
2018-03-03T00:17:22.147Z,-4.70
2018-03-03T00:18:28.712Z,-4.69
2018-03-03T00:19:34.005Z,-4.63
2018-03-03T00:20:39.273Z,-4.67
2018-03-03T00:21:44.572Z,-4.66
2018-03-03T00:22:50.047Z,-4.62
2018-03-03T00:23:55.384Z,-4.58
2018-03-03T00:25:01.299Z,-4.58
2018-03-03T00:26:06.795Z,-4.54
2018-03-03T00:27:12.366Z,-4.54
2018-03-03T00:28:17.709Z,-4.57
2018-03-03T00:29:23.128Z,-4.58
2018-03-03T00:30:28.411Z,-4.60
2018-03-03T00:31:34.027Z,-4.60
2018-03-03T00:32:39.321Z,-4.60
2018-03-03T00:33:44.717Z,-4.62
2018-03-03T00:34:50.031Z,-4.65
2018-03-03T00:35:55.494Z,-4.66
2018-03-03T00:37:00.996Z,-4.60
2018-03-03T00:38:06.655Z,-4.60
2018-03-03T00:39:12.734Z,-4.61
2018-03-03T00:40:17.926Z,-4.69
2018-03-03T00:41:23.334Z,-4.75
2018-03-03T00:42:28.809Z,-4.73
2018-03-03T00:43:34.024Z,-4.66
2018-03-03T00:44:39.615Z,-4.75
2018-03-03T00:45:44.870Z,-4.78
2018-03-03T00:46:50.231Z,-4.69
2018-03-03T00:47:56.427Z,-4.66
2018-03-03T00:49:01.737Z,-4.67
2018-03-03T00:50:06.913Z,-4.66
2018-03-03T00:51:12.446Z,-4.64
2018-03-03T00:52:17.777Z,-4.63
2018-03-03T00:53:23.139Z,-4.65
2018-03-03T00:54:28.512Z,-4.72
2018-03-03T00:55:33.880Z,-4.69
2018-03-03T00:56:39.444Z,-4.65
2018-03-03T00:57:45.126Z,-4.70
2018-03-03T00:58:50.712Z,-4.73
2018-03-03T00:59:56.313Z,-4.67
2018-03-03T01:01:01.820Z,-4.64
2018-03-03T01:02:07.603Z,-4.61
2018-03-03T01:03:13.255Z,-4.55
2018-03-03T01:04:19.120Z,-4.52
2018-03-03T01:05:24.584Z,-4.51
2018-03-03T01:06:30.228Z,-4.46
2018-03-03T01:07:37.095Z,-4.51
2018-03-03T01:08:42.702Z,-4.55
2018-03-03T01:09:48.242Z,-4.55
2018-03-03T01:10:54.172Z,-4.55
2018-03-03T01:11:59.806Z,-4.56
2018-03-03T01:13:05.573Z,-4.56
2018-03-03T01:14:11.049Z,-4.53
2018-03-03T01:15:16.356Z,-4.51
2018-03-03T01:16:21.796Z,-4.56
2018-03-03T01:17:27.634Z,-4.56
2018-03-03T01:18:33.085Z,-4.56
2018-03-03T01:19:38.476Z,-4.48
2018-03-03T01:20:44.011Z,-4.44
2018-03-03T01:21:49.842Z,-4.55
2018-03-03T01:22:55.539Z,-4.63
2018-03-03T01:24:01.361Z,-4.66
2018-03-03T01:25:06.984Z,-4.67
2018-03-03T01:26:12.658Z,-4.72
2018-03-03T01:27:18.544Z,-4.69
2018-03-03T01:28:24.172Z,-4.68
2018-03-03T01:29:29.901Z,-4.64
2018-03-03T01:30:35.739Z,-4.64
2018-03-03T01:31:41.157Z,-4.61
2018-03-03T01:32:47.068Z,-4.62
2018-03-03T01:33:52.720Z,-4.63
2018-03-03T01:34:58.268Z,-4.59
2018-03-03T01:36:04.156Z,-4.58
2018-03-03T01:37:10.006Z,-4.61
2018-03-03T01:38:15.690Z,-4.63
2018-03-03T01:39:21.438Z,-4.64
2018-03-03T01:40:26.955Z,-4.64
2018-03-03T01:41:33.399Z,-4.60
2018-03-03T01:42:39.047Z,-4.60
2018-03-03T01:43:44.941Z,-4.57
2018-03-03T01:44:50.554Z,-4.53
2018-03-03T01:45:56.286Z,-4.49
2018-03-03T01:47:01.830Z,-4.49
2018-03-03T01:48:07.599Z,-4.49
2018-03-03T01:49:13.409Z,-4.47
2018-03-03T01:50:19.880Z,-4.47
2018-03-03T01:51:29.816Z,-4.43
2018-03-03T01:52:35.693Z,-4.40
2018-03-03T01:53:41.633Z,-4.37
2018-03-03T01:54:47.189Z,-4.42
2018-03-03T01:55:52.795Z,-4.56
2018-03-03T01:56:59.878Z,-4.51
2018-03-03T01:58:05.913Z,-4.46
2018-03-03T01:59:11.761Z,-4.44
2018-03-03T02:00:17.234Z,-4.42
2018-03-03T02:01:22.971Z,-4.48
2018-03-03T02:02:28.714Z,-4.63
2018-03-03T02:03:34.950Z,-4.53
2018-03-03T02:04:40.813Z,-4.44
2018-03-03T02:05:46.822Z,-4.48
2018-03-03T02:06:52.878Z,-4.44
2018-03-03T02:07:58.797Z,-4.44
2018-03-03T02:09:04.576Z,-4.40
2018-03-03T02:10:10.819Z,-4.40
2018-03-03T02:11:16.943Z,-4.39
2018-03-03T02:12:22.889Z,-4.37
2018-03-03T02:13:28.891Z,-4.41
2018-03-03T02:14:34.649Z,-4.49
2018-03-03T02:15:40.424Z,-4.44
2018-03-03T02:16:46.352Z,-4.40
2018-03-03T02:17:52.131Z,-4.34
2018-03-03T02:18:57.981Z,-4.35
2018-03-03T02:20:03.824Z,-4.42
2018-03-03T02:21:09.834Z,-4.47
2018-03-03T02:22:15.725Z,-4.39
2018-03-03T02:23:21.894Z,-4.43
2018-03-03T02:24:27.695Z,-4.45
2018-03-03T02:25:33.675Z,-4.45
2018-03-03T02:26:39.477Z,-4.54
2018-03-03T02:27:45.516Z,-4.57
2018-03-03T02:28:51.370Z,-4.54
2018-03-03T02:29:57.389Z,-4.51
2018-03-03T02:31:03.405Z,-4.49
2018-03-03T02:32:09.345Z,-4.47
2018-03-03T02:33:14.970Z,-4.60
2018-03-03T02:34:21.072Z,-4.53
2018-03-03T02:35:27.086Z,-4.50
2018-03-03T02:36:33.185Z,-4.53
2018-03-03T02:37:39.127Z,-4.50
2018-03-03T02:38:44.992Z,-4.54
2018-03-03T02:39:50.857Z,-4.55
2018-03-03T02:40:57.140Z,-4.57
2018-03-03T02:42:03.028Z,-4.60
2018-03-03T02:43:09.143Z,-4.62
2018-03-03T02:44:14.902Z,-4.58
2018-03-03T02:45:20.586Z,-4.60
2018-03-03T02:46:26.258Z,-4.67
2018-03-03T02:47:32.091Z,-4.61
2018-03-03T02:48:37.971Z,-4.62
2018-03-03T02:49:44.136Z,-4.56
2018-03-03T02:50:49.896Z,-4.54
2018-03-03T02:51:55.764Z,-4.51
2018-03-03T02:53:01.532Z,-4.58
2018-03-03T02:54:07.187Z,-4.52
2018-03-03T02:55:13.213Z,-4.51
2018-03-03T02:56:19.263Z,-4.52
2018-03-03T02:57:25.536Z,-4.50
2018-03-03T02:58:31.903Z,-4.59
2018-03-03T02:59:37.432Z,-4.62
2018-03-03T03:00:43.384Z,-4.67
2018-03-03T03:01:48.977Z,-4.60
2018-03-03T03:02:54.838Z,-4.66
2018-03-03T03:04:00.553Z,-4.58
2018-03-03T03:05:06.153Z,-4.55
2018-03-03T03:06:12.663Z,-4.54
2018-03-03T03:07:18.216Z,-4.55
2018-03-03T03:08:23.961Z,-4.53
2018-03-03T03:09:29.960Z,-4.51
2018-03-03T03:10:35.414Z,-4.52
2018-03-03T03:11:40.915Z,-4.52
2018-03-03T03:12:46.432Z,-4.48
2018-03-03T03:13:52.417Z,-4.49
2018-03-03T03:14:57.980Z,-4.49
2018-03-03T03:16:04.121Z,-4.44
2018-03-03T03:17:09.762Z,-4.42
2018-03-03T03:18:15.442Z,-4.46
2018-03-03T03:19:21.431Z,-4.50
2018-03-03T03:20:27.293Z,-4.56
2018-03-03T03:21:32.797Z,-4.52
2018-03-03T03:22:38.486Z,-4.46
2018-03-03T03:23:45.466Z,-4.48
2018-03-03T03:24:50.999Z,-4.49
2018-03-03T03:25:56.762Z,-4.46
2018-03-03T03:27:02.362Z,-4.45
2018-03-03T03:28:07.872Z,-4.47
2018-03-03T03:29:13.776Z,-4.48
2018-03-03T03:30:19.447Z,-4.43
2018-03-03T03:31:24.950Z,-4.53
2018-03-03T03:32:30.448Z,-4.51
2018-03-03T03:33:36.136Z,-4.51
2018-03-03T03:34:42.135Z,-4.52
2018-03-03T03:35:47.639Z,-4.54
2018-03-03T03:36:53.462Z,-4.47
2018-03-03T03:37:59.081Z,-4.52
2018-03-03T03:39:04.996Z,-4.51
2018-03-03T03:40:10.435Z,-4.52
2018-03-03T03:41:16.280Z,-4.47
2018-03-03T03:42:21.666Z,-4.46
2018-03-03T03:43:27.234Z,-4.50
2018-03-03T03:44:32.430Z,-4.52
2018-03-03T03:45:38.095Z,-4.50
2018-03-03T03:46:43.364Z,-4.44
2018-03-03T03:47:49.410Z,-4.43
2018-03-03T03:48:55.057Z,-4.44
2018-03-03T03:50:00.202Z,-4.42
2018-03-03T03:51:05.650Z,-4.36
2018-03-03T03:52:11.118Z,-4.39
2018-03-03T03:53:16.479Z,-4.41
2018-03-03T03:54:22.014Z,-4.47
2018-03-03T03:55:27.316Z,-4.50
2018-03-03T03:56:32.751Z,-4.52
2018-03-03T03:57:38.274Z,-4.51
2018-03-03T03:58:43.803Z,-4.47
2018-03-03T03:59:49.710Z,-4.48
2018-03-03T04:00:55.064Z,-4.47
2018-03-03T04:02:00.925Z,-4.40
2018-03-03T04:03:06.687Z,-4.36
2018-03-03T04:04:12.431Z,-4.34
2018-03-03T04:05:17.932Z,-4.35
2018-03-03T04:06:23.676Z,-4.25
2018-03-03T04:07:28.859Z,-4.31
2018-03-03T04:08:34.436Z,-4.38
2018-03-03T04:09:39.920Z,-4.55
2018-03-03T04:10:45.240Z,-4.55
2018-03-03T04:11:50.783Z,-4.50
2018-03-03T04:12:56.772Z,-4.51
2018-03-03T04:14:02.542Z,-4.46
2018-03-03T04:15:07.796Z,-4.45
2018-03-03T04:16:13.170Z,-4.42
2018-03-03T04:17:18.327Z,-4.37
2018-03-03T04:18:23.843Z,-4.37
2018-03-03T04:19:29.642Z,-4.39
2018-03-03T04:20:34.908Z,-4.36
2018-03-03T04:21:40.224Z,-4.33
2018-03-03T04:22:46.506Z,-4.29
2018-03-03T04:23:51.782Z,-4.26
2018-03-03T04:24:57.492Z,-4.33
2018-03-03T04:26:03.332Z,-4.40
2018-03-03T04:27:08.852Z,-4.46
2018-03-03T04:28:14.200Z,-4.48
2018-03-03T04:29:19.538Z,-4.48
2018-03-03T04:30:24.769Z,-4.48
2018-03-03T04:31:30.320Z,-4.47
2018-03-03T04:32:35.994Z,-4.49
2018-03-03T04:33:41.432Z,-4.47
2018-03-03T04:34:46.842Z,-4.44
2018-03-03T04:35:52.330Z,-4.46
2018-03-03T04:36:57.704Z,-4.51
2018-03-03T04:38:03.315Z,-4.56
2018-03-03T04:39:08.436Z,-4.58
2018-03-03T04:40:14.548Z,-4.62
2018-03-03T04:41:19.640Z,-4.63
2018-03-03T04:42:24.838Z,-4.64
2018-03-03T04:43:30.315Z,-4.64
2018-03-03T04:44:36.077Z,-4.69
2018-03-03T04:45:41.501Z,-4.70
2018-03-03T04:46:46.834Z,-4.63
2018-03-03T04:47:52.321Z,-4.71
2018-03-03T04:48:57.632Z,-4.73
2018-03-03T04:50:03.121Z,-4.67
2018-03-03T04:51:09.047Z,-4.71
2018-03-03T04:52:14.489Z,-4.66
2018-03-03T04:53:20.053Z,-4.63
2018-03-03T04:54:25.530Z,-4.62
2018-03-03T04:55:31.095Z,-4.68
2018-03-03T04:56:36.591Z,-4.81
2018-03-03T04:57:42.405Z,-4.81
2018-03-03T04:58:48.173Z,-4.82
2018-03-03T04:59:53.893Z,-4.75
2018-03-03T05:00:59.645Z,-4.73
2018-03-03T05:02:05.672Z,-4.74
2018-03-03T05:03:11.609Z,-4.73
2018-03-03T05:04:17.718Z,-4.74
2018-03-03T05:05:23.408Z,-4.80
2018-03-03T05:06:28.933Z,-4.80
2018-03-03T05:07:35.082Z,-4.77
2018-03-03T05:08:40.717Z,-4.78
2018-03-03T05:09:46.403Z,-4.82
2018-03-03T05:10:52.438Z,-4.81
2018-03-03T05:11:58.968Z,-4.74
2018-03-03T05:13:04.700Z,-4.82
2018-03-03T05:14:10.378Z,-4.86
2018-03-03T05:15:15.982Z,-4.81
2018-03-03T05:16:21.728Z,-4.75
2018-03-03T05:17:27.009Z,-4.70
2018-03-03T05:18:33.713Z,-4.67
2018-03-03T05:19:39.779Z,-4.75
2018-03-03T05:20:45.482Z,-4.77
2018-03-03T05:21:53.710Z,-4.73
2018-03-03T05:23:01.808Z,-4.71
2018-03-03T05:24:07.748Z,-4.67
2018-03-03T05:25:13.611Z,-4.68
2018-03-03T05:26:22.663Z,-4.68
2018-03-03T05:27:28.070Z,-4.69
2018-03-03T05:28:37.619Z,-4.68
2018-03-03T05:29:44.342Z,-4.68
2018-03-03T05:30:50.160Z,-4.65
2018-03-03T05:31:56.808Z,-4.65
2018-03-03T05:33:02.861Z,-4.67
2018-03-03T05:34:09.454Z,-4.66
2018-03-03T05:35:15.532Z,-4.66
2018-03-03T05:36:21.440Z,-4.68
2018-03-03T05:37:27.695Z,-4.72
2018-03-03T05:38:34.499Z,-4.71
2018-03-03T05:39:40.008Z,-4.68
2018-03-03T05:40:46.114Z,-4.61
2018-03-03T05:41:52.537Z,-4.62
2018-03-03T05:42:58.428Z,-4.61
2018-03-03T05:44:05.730Z,-4.65
2018-03-03T05:45:12.048Z,-4.66
2018-03-03T05:46:18.556Z,-4.64
2018-03-03T05:47:24.401Z,-4.69
2018-03-03T05:48:30.496Z,-4.69
2018-03-03T05:49:36.544Z,-4.69
2018-03-03T05:50:42.882Z,-4.69
2018-03-03T05:51:49.062Z,-4.66
2018-03-03T05:52:55.119Z,-4.68
2018-03-03T05:54:01.182Z,-4.70
2018-03-03T05:55:07.060Z,-4.74
2018-03-03T05:56:12.912Z,-4.72
2018-03-03T05:57:18.635Z,-4.71
2018-03-03T05:58:24.942Z,-4.66
2018-03-03T05:59:31.543Z,-4.67
2018-03-03T06:00:37.543Z,-4.71
2018-03-03T06:01:43.775Z,-4.70
2018-03-03T06:02:49.987Z,-4.65
2018-03-03T06:03:55.972Z,-4.68
2018-03-03T06:05:02.443Z,-4.64
2018-03-03T06:06:08.400Z,-4.68
2018-03-03T06:07:14.404Z,-4.67
2018-03-03T06:08:20.163Z,-4.73
2018-03-03T06:09:25.992Z,-4.67
2018-03-03T06:10:31.776Z,-4.63
2018-03-03T06:11:37.999Z,-4.60
2018-03-03T06:12:43.431Z,-4.55
2018-03-03T06:13:49.066Z,-4.58
2018-03-03T06:14:54.653Z,-4.56
2018-03-03T06:16:00.548Z,-4.60
2018-03-03T06:17:06.381Z,-4.57
2018-03-03T06:18:12.345Z,-4.64
2018-03-03T06:19:18.041Z,-4.62
2018-03-03T06:20:23.938Z,-4.62
2018-03-03T06:21:29.992Z,-4.64
2018-03-03T06:22:36.237Z,-4.61
2018-03-03T06:23:42.082Z,-4.63
2018-03-03T06:24:48.074Z,-4.66
2018-03-03T06:25:53.811Z,-4.69
2018-03-03T06:26:59.444Z,-4.70
2018-03-03T06:28:05.492Z,-4.65
2018-03-03T06:29:11.061Z,-4.62
2018-03-03T06:30:17.138Z,-4.57
2018-03-03T06:31:23.161Z,-4.49
2018-03-03T06:32:28.859Z,-4.39
2018-03-03T06:33:34.345Z,-4.45
2018-03-03T06:34:40.199Z,-4.44
2018-03-03T06:35:46.170Z,-4.48
2018-03-03T06:36:51.759Z,-4.46
2018-03-03T06:37:57.764Z,-4.53
2018-03-03T06:39:03.565Z,-4.51
2018-03-03T06:40:09.514Z,-4.48
2018-03-03T06:41:15.296Z,-4.50
2018-03-03T06:42:20.988Z,-4.42
2018-03-03T06:43:26.746Z,-4.45
2018-03-03T06:44:32.761Z,-4.49
2018-03-03T06:45:38.531Z,-4.43
2018-03-03T06:46:44.368Z,-4.38
2018-03-03T06:47:50.153Z,-4.42
2018-03-03T06:48:55.812Z,-4.49
2018-03-03T06:50:01.676Z,-4.49
2018-03-03T06:51:07.594Z,-4.48
2018-03-03T06:52:13.383Z,-4.49
2018-03-03T06:53:19.200Z,-4.44
2018-03-03T06:54:24.972Z,-4.40
2018-03-03T06:55:30.582Z,-4.41
2018-03-03T06:56:36.242Z,-4.45
2018-03-03T06:57:42.278Z,-4.36
2018-03-03T06:58:48.111Z,-4.36
2018-03-03T06:59:53.798Z,-4.46
2018-03-03T07:00:59.661Z,-4.37
2018-03-03T07:02:05.572Z,-4.34
2018-03-03T07:03:11.292Z,-4.29
2018-03-03T07:04:17.228Z,-4.28
2018-03-03T07:05:23.368Z,-4.26
2018-03-03T07:06:29.174Z,-4.37
2018-03-03T07:07:34.910Z,-4.38
2018-03-03T07:08:40.952Z,-4.27
2018-03-03T07:09:46.727Z,-4.26
2018-03-03T07:10:53.067Z,-4.30
2018-03-03T07:11:58.906Z,-4.37
2018-03-03T07:13:04.909Z,-4.25
2018-03-03T07:14:10.839Z,-4.19
2018-03-03T07:15:16.705Z,-4.21
2018-03-03T07:16:22.487Z,-4.14
2018-03-03T07:17:28.381Z,-4.13
2018-03-03T07:18:34.889Z,-4.07
2018-03-03T07:19:40.925Z,-4.18
2018-03-03T07:20:46.539Z,-4.14
2018-03-03T07:21:52.218Z,-4.13
2018-03-03T07:22:57.869Z,-4.10
2018-03-03T07:24:03.824Z,-4.16
2018-03-03T07:25:09.429Z,-4.11
2018-03-03T07:26:14.866Z,-4.10
2018-03-03T07:27:20.519Z,-4.07
2018-03-03T07:28:26.185Z,-3.98
2018-03-03T07:29:31.728Z,-4.06
2018-03-03T07:30:37.535Z,-4.06
2018-03-03T07:31:43.090Z,-4.00
2018-03-03T07:32:48.497Z,-3.86
2018-03-03T07:33:53.982Z,-3.82
2018-03-03T07:34:59.503Z,-3.75
2018-03-03T07:36:05.083Z,-3.68
2018-03-03T07:37:11.099Z,-3.77
2018-03-03T07:38:16.639Z,-3.75
2018-03-03T07:39:22.356Z,-3.70
2018-03-03T07:40:27.884Z,-3.69
2018-03-03T07:41:33.342Z,-3.80
2018-03-03T07:42:38.904Z,-3.73
2018-03-03T07:43:44.645Z,-3.63
2018-03-03T07:44:50.159Z,-3.65
2018-03-03T07:45:55.600Z,-3.61
2018-03-03T07:47:00.999Z,-3.52
2018-03-03T07:48:06.604Z,-3.40
2018-03-03T07:49:12.196Z,-3.50
2018-03-03T07:50:18.163Z,-3.54
2018-03-03T07:51:23.896Z,-3.47
2018-03-03T07:52:29.508Z,-3.42
2018-03-03T07:53:35.033Z,-3.36
2018-03-03T07:54:40.711Z,-3.34
2018-03-03T07:55:46.042Z,-3.41
2018-03-03T07:56:52.350Z,-3.34
2018-03-03T07:57:57.629Z,-3.44
2018-03-03T07:59:02.839Z,-3.34
2018-03-03T08:00:08.081Z,-3.25
2018-03-03T08:01:13.347Z,-3.09
2018-03-03T08:02:18.783Z,-3.08
2018-03-03T08:03:24.521Z,-3.51
2018-03-03T08:04:30.092Z,-3.45
2018-03-03T08:05:35.574Z,-3.42
2018-03-03T08:06:40.956Z,-3.41
2018-03-03T08:07:46.676Z,-3.26
2018-03-03T08:08:52.355Z,-3.14
2018-03-03T08:09:58.182Z,-3.30
2018-03-03T08:11:03.556Z,-3.34
2018-03-03T08:12:09.052Z,-3.27
2018-03-03T08:13:14.603Z,-3.18
2018-03-03T08:14:19.917Z,-3.11
2018-03-03T08:15:25.165Z,-3.11
2018-03-03T08:16:30.764Z,-3.13
2018-03-03T08:17:36.119Z,-3.21
2018-03-03T08:18:41.502Z,-3.13
2018-03-03T08:19:46.680Z,-3.14
2018-03-03T08:20:51.996Z,-3.02
2018-03-03T08:21:57.461Z,-2.96
2018-03-03T08:23:03.350Z,-3.17
2018-03-03T08:24:09.034Z,-3.12
2018-03-03T08:25:14.469Z,-3.02
2018-03-03T08:26:20.283Z,-2.94
2018-03-03T08:27:25.736Z,-2.79
2018-03-03T08:28:31.361Z,-2.87
2018-03-03T08:29:36.692Z,-2.96
2018-03-03T08:30:41.998Z,-2.94
2018-03-03T08:31:47.335Z,-2.98
2018-03-03T08:32:52.762Z,-2.93
2018-03-03T08:33:58.083Z,-2.95
2018-03-03T08:35:03.996Z,-3.00
2018-03-03T08:36:09.392Z,-3.06
2018-03-03T08:37:14.687Z,-3.05
2018-03-03T08:38:20.131Z,-3.12
2018-03-03T08:39:25.500Z,-3.04
2018-03-03T08:40:30.751Z,-3.02
2018-03-03T08:41:37.324Z,-3.11
2018-03-03T08:42:42.600Z,-3.23
2018-03-03T08:43:48.189Z,-3.17
2018-03-03T08:44:53.703Z,-3.12
2018-03-03T08:45:58.876Z,-3.15
2018-03-03T08:47:04.491Z,-2.97
2018-03-03T08:48:10.200Z,-2.92
2018-03-03T08:49:15.638Z,-2.91
2018-03-03T08:50:20.897Z,-2.98
2018-03-03T08:51:26.255Z,-3.11
2018-03-03T08:52:31.888Z,-3.11
2018-03-03T08:53:37.217Z,-3.06
2018-03-03T08:54:42.968Z,-3.02
2018-03-03T08:55:48.285Z,-2.99
2018-03-03T08:56:53.587Z,-2.89
2018-03-03T08:57:59.258Z,-2.96
2018-03-03T08:59:04.803Z,-2.99
2018-03-03T09:00:10.324Z,-3.02
2018-03-03T09:01:16.173Z,-3.01
2018-03-03T09:02:21.834Z,-2.89
2018-03-03T09:03:27.260Z,-3.03
2018-03-03T09:04:33.576Z,-2.90
2018-03-03T09:05:39.117Z,-2.98
2018-03-03T09:06:45.007Z,-2.85
2018-03-03T09:07:50.695Z,-2.76
2018-03-03T09:08:56.037Z,-2.80
2018-03-03T09:10:01.476Z,-2.81
2018-03-03T09:11:06.828Z,-2.79
2018-03-03T09:12:12.217Z,-2.72
2018-03-03T09:13:17.544Z,-2.66
2018-03-03T09:14:23.031Z,-2.64
2018-03-03T09:15:28.366Z,-2.53
2018-03-03T09:16:33.752Z,-2.53
2018-03-03T09:17:38.932Z,-2.44
2018-03-03T09:18:44.378Z,-2.57
2018-03-03T09:19:49.711Z,-2.56
2018-03-03T09:20:55.003Z,-2.57
2018-03-03T09:22:00.370Z,-2.62
2018-03-03T09:23:05.828Z,-2.54
2018-03-03T09:24:11.779Z,-2.54
2018-03-03T09:25:17.248Z,-2.55
2018-03-03T09:26:22.846Z,-2.66
2018-03-03T09:27:28.124Z,-2.52
2018-03-03T09:28:33.336Z,-2.59
2018-03-03T09:29:38.475Z,-2.72
2018-03-03T09:30:43.812Z,-2.74
2018-03-03T09:31:49.076Z,-2.70
2018-03-03T09:32:54.567Z,-2.77
2018-03-03T09:33:59.767Z,-2.83
2018-03-03T09:35:05.026Z,-2.70
2018-03-03T09:36:10.470Z,-2.59
2018-03-03T09:37:15.497Z,-2.48
2018-03-03T09:38:21.308Z,-2.42
2018-03-03T09:39:28.682Z,-2.40
2018-03-03T09:40:33.860Z,-2.37
2018-03-03T09:41:41.454Z,-2.47
2018-03-03T09:42:48.748Z,-2.31
2018-03-03T09:43:54.799Z,-2.25
2018-03-03T09:45:00.454Z,-2.30
2018-03-03T09:46:06.668Z,-2.24
2018-03-03T09:47:12.404Z,-2.00
2018-03-03T09:48:17.579Z,-1.92
2018-03-03T09:49:22.760Z,-1.80
2018-03-03T09:50:27.887Z,-1.66
2018-03-03T09:51:33.006Z,-1.73
2018-03-03T09:52:38.529Z,-1.98
2018-03-03T09:53:43.605Z,-1.98
2018-03-03T09:54:48.881Z,-1.63
2018-03-03T09:55:54.078Z,-1.57
2018-03-03T09:56:59.577Z,-1.56
2018-03-03T09:58:05.550Z,-1.45
2018-03-03T09:59:11.300Z,-1.76
2018-03-03T10:00:16.459Z,-1.84
2018-03-03T10:01:21.734Z,-2.03
2018-03-03T10:02:27.034Z,-2.08
2018-03-03T10:03:32.347Z,-1.90
2018-03-03T10:04:38.048Z,-1.81
2018-03-03T10:05:44.120Z,-1.81
2018-03-03T10:06:49.262Z,-1.77
2018-03-03T10:07:55.549Z,-1.57
2018-03-03T10:09:00.886Z,-1.41
2018-03-03T10:10:06.088Z,-1.42
2018-03-03T10:11:11.947Z,-1.42
2018-03-03T10:12:17.266Z,-1.24
2018-03-03T10:13:22.618Z,-1.12
2018-03-03T10:14:27.986Z,-1.19
2018-03-03T10:15:34.709Z,-1.41
2018-03-03T10:16:40.632Z,-1.34
2018-03-03T10:17:45.893Z,-1.12
2018-03-03T10:18:52.391Z,-1.09
2018-03-03T10:19:59.383Z,-1.14
2018-03-03T10:21:04.618Z,-1.18
2018-03-03T10:22:10.902Z,-1.08
2018-03-03T10:23:16.572Z,-0.99
2018-03-03T10:24:22.503Z,-1.16
2018-03-03T10:25:28.385Z,-1.17
2018-03-03T10:26:33.779Z,-1.15
2018-03-03T10:27:39.535Z,-1.05
2018-03-03T10:28:45.299Z,-0.81
2018-03-03T10:29:51.247Z,-0.70
2018-03-03T10:30:56.919Z,-0.82
2018-03-03T10:32:03.213Z,-1.03
2018-03-03T10:33:09.118Z,-1.22
2018-03-03T10:34:14.498Z,-1.47
2018-03-03T10:35:20.072Z,-1.38
2018-03-03T10:36:25.298Z,-1.39
2018-03-03T10:37:30.480Z,-1.18
2018-03-03T10:38:35.707Z,-0.98
2018-03-03T10:39:40.854Z,-0.98
2018-03-03T10:40:46.030Z,-0.93
2018-03-03T10:41:51.567Z,-1.00
2018-03-03T10:42:56.992Z,-1.08
2018-03-03T10:44:02.292Z,-1.14
2018-03-03T10:45:08.318Z,-0.84
2018-03-03T10:46:13.448Z,-0.75
2018-03-03T10:47:19.193Z,-0.93
2018-03-03T10:48:24.777Z,-0.93
2018-03-03T10:49:30.557Z,-0.67
2018-03-03T10:50:36.849Z,-0.60
2018-03-03T10:51:42.156Z,-0.76
2018-03-03T10:52:47.831Z,-0.93
2018-03-03T10:53:53.012Z,-0.90
2018-03-03T10:54:58.411Z,-0.99
2018-03-03T10:56:03.642Z,-1.11
2018-03-03T10:57:08.947Z,-0.98
2018-03-03T10:58:14.264Z,-0.60
2018-03-03T10:59:19.419Z,-0.42
2018-03-03T11:00:28.835Z,-0.20
2018-03-03T11:01:36.149Z,-0.08
2018-03-03T11:02:42.383Z,-0.43
2018-03-03T11:03:48.788Z,-0.71
2018-03-03T11:04:55.528Z,-0.81
2018-03-03T11:06:00.923Z,-0.93
2018-03-03T11:07:06.152Z,-0.80
2018-03-03T11:08:11.487Z,-0.40
2018-03-03T11:09:18.065Z,-0.17
2018-03-03T11:10:28.722Z,-0.24
2018-03-03T11:11:34.592Z,-0.28
2018-03-03T11:12:40.371Z,-0.44
2018-03-03T11:13:45.805Z,-0.28
2018-03-03T11:14:51.033Z,-0.17
2018-03-03T11:15:56.168Z,-0.14
2018-03-03T11:17:03.362Z,-0.07
2018-03-03T11:18:09.404Z,-0.03
2018-03-03T11:19:14.990Z,-0.14
2018-03-03T11:20:20.175Z,-0.01
2018-03-03T11:21:25.290Z,-0.25
2018-03-03T11:22:30.446Z,-0.30
2018-03-03T11:23:35.770Z,-0.50
2018-03-03T11:24:40.943Z,-0.59
2018-03-03T11:25:46.398Z,-0.51
2018-03-03T11:26:51.704Z,-0.38
2018-03-03T11:27:57.131Z,-0.42
2018-03-03T11:29:02.343Z,-0.49
2018-03-03T11:30:07.683Z,-0.52
2018-03-03T11:31:13.193Z,-0.51
2018-03-03T11:32:18.691Z,-0.49
2018-03-03T11:33:23.839Z,-0.26
2018-03-03T11:34:29.069Z,-0.16
2018-03-03T11:35:34.273Z,0.00
2018-03-03T11:36:39.424Z,-0.14
2018-03-03T11:37:45.603Z,-0.31
2018-03-03T11:38:51.378Z,-0.39
2018-03-03T11:39:56.590Z,-0.36
2018-03-03T11:41:01.739Z,-0.18
2018-03-03T11:42:06.892Z,-0.09
2018-03-03T11:43:12.093Z,-0.37
2018-03-03T11:44:18.913Z,-0.61
2018-03-03T11:45:24.115Z,-0.68
2018-03-03T11:46:29.334Z,-0.88
2018-03-03T11:47:34.710Z,-0.82
2018-03-03T11:48:40.021Z,-0.79
2018-03-03T11:49:45.187Z,-0.42
2018-03-03T11:50:50.939Z,-0.44
2018-03-03T11:51:56.820Z,-0.37
2018-03-03T11:53:02.165Z,-0.28
2018-03-03T11:54:07.349Z,-0.31
2018-03-03T11:55:12.603Z,-0.15
2018-03-03T11:56:17.776Z,-0.24
2018-03-03T11:57:22.907Z,-0.50
2018-03-03T11:58:28.330Z,-0.53
2018-03-03T11:59:33.591Z,-0.70
2018-03-03T12:00:39.018Z,-0.73
2018-03-03T12:01:44.123Z,-0.55
2018-03-03T12:02:49.765Z,-0.36
2018-03-03T12:03:55.773Z,-0.35
2018-03-03T12:05:00.992Z,-0.18
2018-03-03T12:06:06.034Z,-0.26
2018-03-03T12:07:11.088Z,-0.42
2018-03-03T12:08:16.176Z,-0.42
2018-03-03T12:09:21.594Z,-0.43
2018-03-03T12:10:26.796Z,-0.35
2018-03-03T12:11:32.494Z,-0.43
2018-03-03T12:12:37.753Z,-0.55
2018-03-03T12:13:43.155Z,-0.49
2018-03-03T12:14:48.441Z,-0.38
2018-03-03T12:15:53.884Z,-0.55
2018-03-03T12:16:59.053Z,-0.56
2018-03-03T12:18:04.314Z,-0.50
2018-03-03T12:19:09.468Z,-0.55
2018-03-03T12:20:14.775Z,-0.64
2018-03-03T12:21:20.114Z,-0.38
2018-03-03T12:22:25.568Z,-0.25
2018-03-03T12:23:30.751Z,-0.13
2018-03-03T12:24:35.972Z,-0.10
2018-03-03T12:25:41.066Z,-0.19
2018-03-03T12:26:46.480Z,-0.19
2018-03-03T12:27:51.866Z,-0.27
2018-03-03T12:28:57.264Z,-0.41
2018-03-03T12:30:02.527Z,-0.23
2018-03-03T12:31:08.976Z,-0.09
2018-03-03T12:32:14.707Z,-0.24
2018-03-03T12:33:20.433Z,-0.25
2018-03-03T12:34:25.766Z,-0.22
2018-03-03T12:35:31.590Z,-0.04
2018-03-03T12:36:37.547Z,-0.07
2018-03-03T12:37:45.565Z,-0.14
2018-03-03T12:38:50.825Z,-0.17
2018-03-03T12:39:56.244Z,-0.18
2018-03-03T12:41:01.599Z,-0.25
2018-03-03T12:42:06.908Z,-0.36
2018-03-03T12:43:12.286Z,-0.16
2018-03-03T12:44:17.527Z,-0.24
2018-03-03T12:45:22.730Z,-0.12
2018-03-03T12:46:28.165Z,-0.25
2018-03-03T12:47:33.387Z,-0.26
2018-03-03T12:48:38.583Z,-0.19
2018-03-03T12:49:43.662Z,-0.49
2018-03-03T12:50:48.873Z,-0.55
2018-03-03T12:51:54.049Z,-0.46
2018-03-03T12:52:59.620Z,-0.38
2018-03-03T12:54:04.875Z,-0.31
2018-03-03T12:55:10.023Z,-0.37
2018-03-03T12:56:15.880Z,-0.34
2018-03-03T12:57:20.885Z,-0.53
2018-03-03T12:58:25.973Z,-0.74
2018-03-03T12:59:31.402Z,-0.65
2018-03-03T13:00:36.650Z,-0.44
2018-03-03T13:01:41.714Z,-0.42
2018-03-03T13:02:46.771Z,-0.46
2018-03-03T13:03:52.035Z,-0.50
2018-03-03T13:04:57.785Z,-0.50
2018-03-03T13:06:03.329Z,-0.36
2018-03-03T13:07:08.536Z,-0.31
2018-03-03T13:08:13.673Z,-0.34
2018-03-03T13:09:18.810Z,-0.34
2018-03-03T13:10:24.074Z,-0.25
2018-03-03T13:11:29.168Z,-0.18
2018-03-03T13:12:34.332Z,-0.06
2018-03-03T13:13:39.354Z,0.05
2018-03-03T13:14:44.506Z,0.22
2018-03-03T13:15:49.612Z,0.27
2018-03-03T13:16:54.893Z,0.28
2018-03-03T13:18:00.400Z,0.09
2018-03-03T13:19:05.736Z,-0.05
2018-03-03T13:20:10.901Z,-0.18
2018-03-03T13:21:16.117Z,0.01
2018-03-03T13:22:21.399Z,0.08
2018-03-03T13:23:26.441Z,-0.09
2018-03-03T13:24:31.846Z,-0.15
2018-03-03T13:25:37.000Z,-0.36
2018-03-03T13:26:42.133Z,-0.57
2018-03-03T13:27:47.252Z,-0.70
2018-03-03T13:28:52.352Z,-0.64
2018-03-03T13:29:57.298Z,-0.58
2018-03-03T13:31:03.399Z,-0.50
2018-03-03T13:32:08.546Z,-0.35
2018-03-03T13:33:13.749Z,-0.18
2018-03-03T13:34:18.934Z,-0.26
2018-03-03T13:35:24.079Z,-0.36
2018-03-03T13:36:29.587Z,-0.36
2018-03-03T13:37:34.825Z,-0.38
2018-03-03T13:38:39.882Z,-0.49
2018-03-03T13:39:45.249Z,-0.48
2018-03-03T13:40:50.579Z,-0.41
2018-03-03T13:41:56.057Z,-0.38
2018-03-03T13:43:01.584Z,-0.43
2018-03-03T13:44:06.630Z,-0.37
2018-03-03T13:45:11.909Z,-0.39
2018-03-03T13:46:17.062Z,-0.39
2018-03-03T13:47:22.170Z,-0.35
2018-03-03T13:48:27.440Z,-0.44
2018-03-03T13:49:32.786Z,-0.30
2018-03-03T13:50:38.166Z,-0.36
2018-03-03T13:51:43.357Z,-0.41
2018-03-03T13:52:48.575Z,-0.28
2018-03-03T13:53:53.799Z,-0.33
2018-03-03T13:54:59.308Z,-0.39
2018-03-03T13:56:04.693Z,-0.32
2018-03-03T13:57:10.693Z,-0.29
2018-03-03T13:58:15.967Z,-0.24
2018-03-03T13:59:21.107Z,-0.23
2018-03-03T14:00:26.435Z,-0.19
2018-03-03T14:01:31.731Z,-0.07
2018-03-03T14:02:36.937Z,-0.09
2018-03-03T14:03:42.078Z,0.00
2018-03-03T14:04:47.225Z,-0.08
2018-03-03T14:05:52.434Z,-0.01
2018-03-03T14:06:58.166Z,0.03